Mountainhome, Pennsylvania
Current Conditions -  °F | °C
As of 2:53 AM on Friday 24 Oct 2014 (Local Time) from KMPO Reporting Station
Overcast Overcast  
Wind Chill: 37°   Ceiling: 500
Heat Index: 45°   Visibility: 10mi
Dew Point: 42°   Wind: 18mph
Humidity: 90%   Direction: 320°NW
Pressure: 29.8"   Gusts: 29mph
Location:  41.18°N, 75.26°W
Report Text: KMPO 240653Z AUTO 32016G25KT 10SM OVC005 07/06 A2980 RMK AO2 PK WND 33030/0600 SLP098 T00720056 TSNO PNO $
Loading
Personal Weather Stations






























Interactive Weather Map
Tropical Storm Tracking
New forecast layout! Learn more

10-Day Weather Forecast

Advertisements
Track Severe Weather on mobile